Grundy, VA

8:58 PM EST on December 04, 2016 (GMT -0500)
KM4HDM - Richlands, Virginia | | Change Station

Elev 1972 ft 37.09 °N, 81.83 °W | Updated 34 seconds ago

Overcast
Overcast
43.2 °F
Feels Like 43 °F
N
0.0
Wind Variable Wind from WSW

Today
High -- | Low -- °F
--% Chance of Precip.
Yesterday
High -- | Low -- °F
Precip. -- in
Pressure 29.94 in
Visibility 10.0 miles
Clouds Overcast 2200 ft
Windchill 43 °F
Dew Point 41 °F
Humidity 93%
Rainfall 0.17 in
Snow Depth Not available.
7:26 AM 5:10 PM
Waxing Crescent, 27% visible
METAR KJFZ 050135Z AUTO 16005KT 10SM OVC022 07/06 A2994 RMK AO2 T00650057
Pressure 29.94 in
Visibility 10.0 miles
Clouds Overcast 2200 ft
Windchill 43 °F
Dew Point 41 °F
Humidity 93%
Rainfall 0.17 in
Snow Depth Not available.
7:26 AM 5:10 PM
Waxing Crescent, 27% visible
METAR KJFZ 050135Z AUTO 16005KT 10SM OVC022 07/06 A2994 RMK AO2 T00650057

10-Day Weather Forecast

Almanac

Astronomy

Dec. 04, 2016 Rise Set
Actual Time
Civil Twilight
Nautical Twilight
Astronomical Twilight
Moon
Length of Visible Light
Length of Day
Tomorrow will be .
, % of the Moon is Illuminated

Today's Extremes

State Highs State Lows

Community

WunderPhotos

Upload Photos

1,955,744 photos uploaded!

WunderBlog® & News

Nearby

Air Quality

  Air Quality AQ Index Pollutant
Not available.

Snow Depth

Station Depth Elevation

Earthquake Activity

City Distance Mag. Time & Date
Minimum magnitude displayed is 2.5.

Coastal Water Temperatures

Place Temperature

Stations

Nearby Weather Stations

Station Location Temp. Windchill Dew Point Humidity Wind Precip. Elev Updated Type
                   

Watches & Warnings

There are currently no watches in effect.